createdAt,value
2022-11-24T00:01:03.647Z,3.63
2022-11-24T00:03:30.685Z,3.65
2022-11-24T00:06:02.363Z,3.90
2022-11-24T00:08:29.204Z,3.67
2022-11-24T00:10:55.993Z,4.60
2022-11-24T00:13:22.880Z,4.32
2022-11-24T00:15:49.702Z,4.85
2022-11-24T00:18:16.601Z,4.78
2022-11-24T00:20:43.421Z,3.97
2022-11-24T00:23:10.401Z,4.18
2022-11-24T00:25:37.232Z,4.20
2022-11-24T00:28:04.196Z,4.15
2022-11-24T00:30:31.201Z,3.53
2022-11-24T00:32:58.080Z,3.92
2022-11-24T00:35:24.874Z,4.80
2022-11-24T00:37:53.695Z,5.30
2022-11-24T00:40:20.544Z,4.57
2022-11-24T00:42:47.420Z,5.57
2022-11-24T00:45:14.469Z,4.47
2022-11-24T00:47:41.331Z,4.85
2022-11-24T00:50:08.600Z,5.75
2022-11-24T00:52:35.543Z,4.63
2022-11-24T00:55:02.333Z,4.82
2022-11-24T00:57:29.152Z,4.15
2022-11-24T00:59:55.958Z,5.20
2022-11-24T01:02:22.822Z,4.75
2022-11-24T01:04:49.616Z,4.82
2022-11-24T01:07:16.550Z,4.43
2022-11-24T01:09:45.566Z,4.35
2022-11-24T01:12:12.465Z,4.28
2022-11-24T01:14:39.333Z,4.35
2022-11-24T01:17:06.190Z,4.50
2022-11-24T01:19:33.116Z,4.05
2022-11-24T01:22:00.196Z,3.60
2022-11-24T01:24:27.012Z,4.75
2022-11-24T01:26:53.905Z,4.57
2022-11-24T01:29:20.712Z,4.78
2022-11-24T01:31:47.737Z,4.63
2022-11-24T01:34:14.599Z,4.65
2022-11-24T01:36:41.533Z,5.78
2022-11-24T01:39:08.437Z,4.55
2022-11-24T01:41:35.969Z,4.18
2022-11-24T01:44:24.662Z,4.32
2022-11-24T01:47:07.482Z,3.78
2022-11-24T01:49:42.979Z,3.42
2022-11-24T01:54:51.629Z,3.20
2022-11-24T01:57:27.666Z,3.53
2022-11-24T02:00:02.025Z,3.30
2022-11-24T02:02:43.717Z,2.95
2022-11-24T02:05:34.086Z,3.22
2022-11-24T02:08:02.069Z,2.50
2022-11-24T02:10:29.754Z,2.30
2022-11-24T02:12:59.019Z,2.28
2022-11-24T02:15:26.024Z,2.42
2022-11-24T02:17:53.108Z,2.22
2022-11-24T02:20:20.335Z,2.42
2022-11-24T02:22:50.127Z,2.15
2022-11-24T02:25:30.674Z,1.40
2022-11-24T02:28:00.506Z,2.05
2022-11-24T02:30:27.626Z,1.42
2022-11-24T02:32:55.065Z,1.63
2022-11-24T02:35:22.237Z,1.92
2022-11-24T02:37:49.032Z,1.58
2022-11-24T02:40:20.193Z,2.08
2022-11-24T02:42:47.469Z,1.40
2022-11-24T02:45:16.483Z,2.00
2022-11-24T02:47:43.535Z,1.58
2022-11-24T02:50:10.393Z,1.70
2022-11-24T02:52:37.365Z,1.50
2022-11-24T02:55:04.830Z,1.40
2022-11-24T02:57:31.923Z,1.73
2022-11-24T02:59:58.690Z,2.20
2022-11-24T03:02:25.620Z,1.98
2022-11-24T03:04:52.479Z,1.70
2022-11-24T03:07:19.443Z,1.55
2022-11-24T03:09:46.323Z,1.35
2022-11-24T03:12:13.195Z,1.38
2022-11-24T03:14:39.985Z,1.02
2022-11-24T03:17:07.051Z,1.27
2022-11-24T03:19:34.074Z,1.55
2022-11-24T03:22:01.120Z,1.38
2022-11-24T03:24:27.953Z,1.70
2022-11-24T03:26:54.811Z,1.52
2022-11-24T03:29:22.332Z,1.33
2022-11-24T03:31:49.342Z,1.63
2022-11-24T03:34:16.143Z,1.52
2022-11-24T03:36:42.978Z,1.30
2022-11-24T03:39:10.038Z,1.35
2022-11-24T03:41:36.948Z,1.25
2022-11-24T03:44:03.930Z,1.85
2022-11-24T03:46:30.856Z,1.42
2022-11-24T03:48:57.694Z,1.40
2022-11-24T03:51:24.602Z,1.75
2022-11-24T03:53:51.453Z,1.85
2022-11-24T03:56:18.345Z,1.70
2022-11-24T03:58:45.139Z,2.15
2022-11-24T04:01:12.086Z,2.30
2022-11-24T04:03:38.893Z,1.83
2022-11-24T04:06:05.798Z,1.75
2022-11-24T04:08:32.850Z,2.35
2022-11-24T04:10:59.750Z,1.92
2022-11-24T04:13:27.219Z,2.25
2022-11-24T04:15:54.261Z,2.13
2022-11-24T04:18:21.255Z,2.40
2022-11-24T04:20:52.054Z,2.83
2022-11-24T04:23:19.482Z,2.55
2022-11-24T04:25:46.587Z,2.60
2022-11-24T04:28:13.470Z,2.22
2022-11-24T04:30:44.592Z,2.20
2022-11-24T04:33:12.314Z,2.20
2022-11-24T04:35:39.158Z,2.30
2022-11-24T04:38:06.108Z,2.25
2022-11-24T04:40:32.902Z,2.03
2022-11-24T04:42:59.739Z,3.08
2022-11-24T04:45:26.569Z,2.40
2022-11-24T04:47:53.390Z,2.88
2022-11-24T04:50:20.743Z,2.70
2022-11-24T04:52:47.731Z,2.03
2022-11-24T04:55:14.575Z,2.20
2022-11-24T04:57:41.517Z,2.47
2022-11-24T05:00:09.302Z,2.50
2022-11-24T05:02:36.567Z,3.30
2022-11-24T05:05:04.351Z,3.13
2022-11-24T05:07:31.321Z,2.65
2022-11-24T05:10:16.519Z,2.60
2022-11-24T05:12:48.430Z,2.60
2022-11-24T05:15:18.069Z,3.20
2022-11-24T05:17:44.890Z,2.75
2022-11-24T05:20:11.911Z,2.78
2022-11-24T05:22:38.653Z,3.33
2022-11-24T05:25:05.830Z,3.20
2022-11-24T05:27:32.647Z,3.33
2022-11-24T05:29:59.533Z,2.70
2022-11-24T05:32:26.452Z,3.13
2022-11-24T05:34:54.572Z,2.85
2022-11-24T05:37:21.550Z,3.88
2022-11-24T05:39:48.568Z,3.50
2022-11-24T05:42:33.796Z,2.92
2022-11-24T05:45:00.766Z,2.90
2022-11-24T05:47:27.596Z,4.07
2022-11-24T05:49:54.463Z,2.55
2022-11-24T05:52:21.315Z,3.30
2022-11-24T05:54:48.272Z,3.15
2022-11-24T05:57:16.979Z,3.40
2022-11-24T05:59:44.404Z,3.28
2022-11-24T06:02:11.475Z,3.05
2022-11-24T06:04:39.079Z,3.42
2022-11-24T06:07:09.005Z,3.67
2022-11-24T06:09:37.913Z,2.97
2022-11-24T06:12:08.896Z,3.05
2022-11-24T06:14:36.013Z,3.63
2022-11-24T06:17:03.675Z,3.80
2022-11-24T06:19:30.998Z,4.78
2022-11-24T06:21:57.877Z,3.58
2022-11-24T06:24:24.804Z,3.55
2022-11-24T06:26:51.645Z,3.78
2022-11-24T06:29:18.517Z,3.38
2022-11-24T06:31:45.346Z,3.65
2022-11-24T06:34:13.209Z,3.72
2022-11-24T06:36:40.134Z,4.22
2022-11-24T06:39:07.664Z,3.70
2022-11-24T06:41:34.512Z,2.97
2022-11-24T06:44:03.990Z,3.35
2022-11-24T06:46:31.319Z,4.03
2022-11-24T06:48:59.667Z,3.60
2022-11-24T06:51:27.167Z,3.60
2022-11-24T06:53:54.506Z,3.85
2022-11-24T06:56:22.156Z,4.30
2022-11-24T06:58:51.158Z,4.20
2022-11-24T07:01:24.818Z,4.28
2022-11-24T07:03:53.304Z,4.10
2022-11-24T07:06:21.096Z,4.63
2022-11-24T07:08:48.461Z,3.90
2022-11-24T07:11:18.781Z,3.67
2022-11-24T07:13:46.592Z,4.55
2022-11-24T07:16:21.441Z,3.97
2022-11-24T07:18:51.181Z,4.07
2022-11-24T07:21:19.749Z,3.47
2022-11-24T07:23:50.890Z,3.30
2022-11-24T07:26:18.691Z,3.47
2022-11-24T07:28:45.997Z,3.58
2022-11-24T07:31:16.080Z,4.05
2022-11-24T07:33:42.967Z,4.10
2022-11-24T07:36:10.136Z,3.53
2022-11-24T07:38:37.032Z,4.00
2022-11-24T07:41:09.559Z,4.60
2022-11-24T07:43:37.690Z,4.25
2022-11-24T07:46:06.536Z,4.03
2022-11-24T07:48:34.482Z,3.90
2022-11-24T07:51:05.223Z,4.18
2022-11-24T07:53:32.933Z,3.92
2022-11-24T07:56:01.458Z,5.20
2022-11-24T07:58:32.575Z,4.88
2022-11-24T08:01:00.821Z,3.22
2022-11-24T08:03:28.160Z,3.72
2022-11-24T08:06:22.427Z,3.90
2022-11-24T08:08:43.056Z,4.53
2022-11-24T08:11:12.365Z,4.07
2022-11-24T08:13:39.848Z,4.28
2022-11-24T08:16:15.359Z,5.20
2022-11-24T08:18:43.748Z,4.15
2022-11-24T08:21:14.723Z,4.68
2022-11-24T08:23:42.397Z,4.50
2022-11-24T08:26:14.160Z,5.18
2022-11-24T08:28:41.341Z,4.45
2022-11-24T08:31:14.066Z,5.13
2022-11-24T08:33:41.839Z,4.10
2022-11-24T08:36:11.373Z,4.50
2022-11-24T08:38:38.480Z,4.32
2022-11-24T08:41:14.290Z,4.45
2022-11-24T08:43:41.711Z,4.65
2022-11-24T08:46:16.963Z,4.82
2022-11-24T08:48:52.602Z,4.80
2022-11-24T08:53:48.373Z,5.90
2022-11-24T08:56:15.266Z,5.57
2022-11-24T08:58:42.648Z,4.93
2022-11-24T09:01:13.158Z,4.25
2022-11-24T09:03:45.018Z,4.70
2022-11-24T09:06:16.081Z,4.70
2022-11-24T09:08:43.157Z,4.90
2022-11-24T09:11:12.745Z,4.80
2022-11-24T09:13:40.525Z,4.97
2022-11-24T09:16:10.212Z,4.40
2022-11-24T09:18:37.335Z,4.75
2022-11-24T09:21:15.755Z,5.40
2022-11-24T09:23:43.654Z,4.93
2022-11-24T09:26:13.572Z,4.65
2022-11-24T09:28:41.464Z,4.68
2022-11-24T09:31:11.361Z,4.60
2022-11-24T09:33:39.533Z,4.90
2022-11-24T09:36:06.989Z,4.45
2022-11-24T09:38:34.333Z,4.57
2022-11-24T09:41:23.161Z,4.05
2022-11-24T09:44:08.875Z,4.57
2022-11-24T09:46:41.737Z,4.13
2022-11-24T09:49:16.571Z,4.20
2022-11-24T09:51:47.890Z,4.15
2022-11-24T09:54:22.015Z,4.90
2022-11-24T09:56:51.226Z,4.28
2022-11-24T09:59:23.503Z,4.90
2022-11-24T10:01:51.445Z,5.00
2022-11-24T10:04:32.228Z,3.55
2022-11-24T10:07:20.448Z,4.20
2022-11-24T10:09:56.309Z,4.20
2022-11-24T10:12:30.495Z,4.75
2022-11-24T10:15:12.377Z,4.57
2022-11-24T10:18:01.083Z,4.68
2022-11-24T10:20:31.150Z,5.28
2022-11-24T10:23:39.782Z,4.22
2022-11-24T10:26:18.468Z,4.43
2022-11-24T10:28:53.110Z,5.13
2022-11-24T10:31:36.146Z,4.70
2022-11-24T10:34:29.527Z,4.80
2022-11-24T10:37:11.399Z,3.92
2022-11-24T10:40:01.040Z,5.13
2022-11-24T10:42:40.104Z,4.60
2022-11-24T10:45:16.581Z,4.93
2022-11-24T10:47:44.582Z,5.55
2022-11-24T10:50:27.798Z,5.07
2022-11-24T10:53:16.105Z,4.75
2022-11-24T10:55:55.428Z,6.10
2022-11-24T10:58:37.701Z,5.07
2022-11-24T11:01:14.520Z,4.53
2022-11-24T11:03:53.377Z,4.97
2022-11-24T11:06:29.027Z,5.53
2022-11-24T11:09:08.153Z,5.40
2022-11-24T11:11:36.418Z,5.22
2022-11-24T11:14:05.405Z,4.70
2022-11-24T11:16:52.789Z,4.90
2022-11-24T11:19:51.400Z,5.57
2022-11-24T11:22:36.874Z,5.28
2022-11-24T11:25:09.518Z,5.90
2022-11-24T11:27:38.173Z,5.22
2022-11-24T11:39:32.013Z,5.35
2022-11-24T11:42:37.836Z,4.45
2022-11-24T11:45:21.187Z,4.28
2022-11-24T11:47:53.722Z,4.55
2022-11-24T11:51:14.806Z,4.78
2022-11-24T11:53:48.319Z,5.85
2022-11-24T11:56:25.828Z,5.70
2022-11-24T11:59:13.918Z,4.00
2022-11-24T12:01:56.256Z,5.22
2022-11-24T12:04:45.107Z,4.82
2022-11-24T12:07:50.648Z,5.07
2022-11-24T12:10:27.258Z,5.72
2022-11-24T12:13:08.976Z,5.00
2022-11-24T12:15:45.030Z,4.93
2022-11-24T12:18:40.193Z,4.82
2022-11-24T12:21:21.521Z,5.68
2022-11-24T12:24:05.026Z,4.18
2022-11-24T12:26:39.992Z,4.90
2022-11-24T12:29:26.062Z,5.15
2022-11-24T12:34:50.389Z,4.93
2022-11-24T12:37:34.793Z,4.50
2022-11-24T12:40:19.880Z,4.78
2022-11-24T12:42:56.144Z,4.43
2022-11-24T12:45:49.712Z,4.43
2022-11-24T12:48:36.468Z,4.22
2022-11-24T12:51:06.489Z,5.30
2022-11-24T12:53:34.905Z,4.35
2022-11-24T12:56:09.529Z,4.70
2022-11-24T12:58:52.018Z,4.63
2022-11-24T13:01:21.927Z,5.75
2022-11-24T13:03:48.786Z,4.68
2022-11-24T13:06:18.098Z,6.13
2022-11-24T13:08:45.513Z,5.05
2022-11-24T13:11:38.751Z,5.43
2022-11-24T13:14:19.017Z,5.55
2022-11-24T13:19:49.564Z,5.40
2022-11-24T13:22:24.123Z,4.88
2022-11-24T13:25:13.964Z,4.83
2022-11-24T13:27:44.251Z,5.20
2022-11-24T13:30:32.969Z,4.57
2022-11-24T13:33:27.566Z,5.57
2022-11-24T13:36:04.071Z,4.90
2022-11-24T13:38:41.759Z,4.72
2022-11-24T13:41:27.650Z,4.22
2022-11-24T13:44:13.662Z,5.32
2022-11-24T13:47:06.803Z,4.43
2022-11-24T13:49:42.474Z,5.32
2022-11-24T13:52:37.339Z,5.25
2022-11-24T13:55:21.560Z,4.10
2022-11-24T13:57:51.954Z,5.10
2022-11-24T14:00:20.307Z,5.05
2022-11-24T14:02:47.797Z,5.88
2022-11-24T14:05:21.810Z,5.60
2022-11-24T14:07:51.248Z,4.25
2022-11-24T14:10:31.066Z,4.30
2022-11-24T14:13:36.731Z,5.00
2022-11-24T14:16:09.586Z,5.35
2022-11-24T14:18:38.599Z,5.70
2022-11-24T14:21:28.375Z,5.10
2022-11-24T14:24:01.422Z,5.60
2022-11-24T14:26:37.227Z,5.03
2022-11-24T14:29:24.306Z,4.85
2022-11-24T14:31:56.615Z,4.97
2022-11-24T14:34:26.383Z,5.18
2022-11-24T14:36:54.807Z,5.75
2022-11-24T14:39:24.258Z,4.88
2022-11-24T14:41:58.479Z,5.43
2022-11-24T14:44:56.531Z,5.90
2022-11-24T14:47:44.019Z,4.85
2022-11-24T14:50:17.327Z,4.82
2022-11-24T14:52:55.557Z,4.90
2022-11-24T14:55:30.843Z,4.43
2022-11-24T14:57:58.786Z,4.18
2022-11-24T15:00:29.707Z,4.55
2022-11-24T15:03:16.061Z,4.53
2022-11-24T15:05:55.451Z,4.60
2022-11-24T15:08:24.484Z,4.78
2022-11-24T15:10:58.350Z,4.80
2022-11-24T15:13:25.956Z,4.63
2022-11-24T15:16:03.599Z,5.88
2022-11-24T15:18:43.385Z,4.65
2022-11-24T15:21:18.561Z,4.72
2022-11-24T15:24:16.339Z,4.45
2022-11-24T15:26:44.535Z,4.70
2022-11-24T15:29:12.485Z,5.18
2022-11-24T15:31:40.908Z,5.07
2022-11-24T15:34:12.615Z,4.85
2022-11-24T15:36:39.475Z,5.47
2022-11-24T15:39:06.354Z,5.07
2022-11-24T15:41:33.815Z,5.07
2022-11-24T15:44:00.762Z,6.85
2022-11-24T15:46:29.357Z,5.55
2022-11-24T15:48:57.172Z,5.43
2022-11-24T15:51:26.210Z,5.85
2022-11-24T15:54:00.343Z,5.20
2022-11-24T15:56:33.941Z,5.95
2022-11-24T15:59:01.859Z,5.50
2022-11-24T16:01:33.606Z,5.22
2022-11-24T16:04:01.593Z,4.95
2022-11-24T16:06:28.592Z,5.47
2022-11-24T16:08:55.915Z,5.38
2022-11-24T16:11:23.254Z,5.82
2022-11-24T16:13:53.257Z,5.78
2022-11-24T16:16:21.194Z,5.53
2022-11-24T16:18:48.312Z,5.97
2022-11-24T16:21:15.275Z,6.80
2022-11-24T16:23:42.252Z,5.20
2022-11-24T16:26:10.305Z,6.18
2022-11-24T16:28:37.094Z,5.43
2022-11-24T16:31:04.231Z,5.20
2022-11-24T16:33:32.879Z,5.20
2022-11-24T16:36:02.418Z,6.00
2022-11-24T16:38:29.204Z,5.30
2022-11-24T16:40:56.916Z,5.57
2022-11-24T16:43:24.597Z,5.82
2022-11-24T16:46:06.430Z,5.82
2022-11-24T16:48:36.694Z,4.97
2022-11-24T16:51:08.496Z,5.60
2022-11-24T16:53:35.656Z,5.80
2022-11-24T16:56:02.794Z,5.75
2022-11-24T16:58:29.957Z,6.88
2022-11-24T17:01:06.852Z,5.65
2022-11-24T17:03:37.381Z,5.57
2022-11-24T17:06:06.437Z,6.18
2022-11-24T17:08:38.372Z,4.60
2022-11-24T17:11:12.876Z,6.00
2022-11-24T17:13:40.631Z,5.60
2022-11-24T17:16:10.409Z,6.00
2022-11-24T17:18:38.492Z,5.32
2022-11-24T17:21:09.768Z,5.38
2022-11-24T17:23:37.284Z,5.90
2022-11-24T17:26:06.562Z,6.90
2022-11-24T17:28:34.691Z,6.28
2022-11-24T17:31:24.712Z,5.72
2022-11-24T17:33:54.609Z,5.80
2022-11-24T17:36:21.789Z,5.82
2022-11-24T17:38:49.570Z,5.78
2022-11-24T17:41:17.583Z,5.57
2022-11-24T17:43:48.069Z,4.85
2022-11-24T17:46:14.941Z,5.25
2022-11-24T17:48:42.038Z,6.03
2022-11-24T17:51:15.161Z,4.70
2022-11-24T17:53:43.743Z,5.10
2022-11-24T17:56:19.238Z,5.22
2022-11-24T17:58:46.204Z,5.65
2022-11-24T18:01:13.755Z,4.18
2022-11-24T18:03:41.445Z,6.05
2022-11-24T18:06:10.649Z,5.78
2022-11-24T18:08:38.884Z,5.15
2022-11-24T18:11:12.427Z,4.97
2022-11-24T18:13:56.452Z,5.03
2022-11-24T18:16:29.895Z,4.82
2022-11-24T18:19:14.607Z,5.50
2022-11-24T18:21:43.745Z,4.63
2022-11-24T18:24:11.962Z,4.60
2022-11-24T18:26:40.320Z,5.13
2022-11-24T18:29:07.965Z,5.25
2022-11-24T18:31:35.944Z,5.55
2022-11-24T18:34:04.452Z,5.03
2022-11-24T18:36:32.167Z,4.45
2022-11-24T18:39:04.345Z,6.00
2022-11-24T18:41:31.923Z,4.82
2022-11-24T18:44:02.319Z,5.22
2022-11-24T18:46:29.372Z,6.00
2022-11-24T18:48:56.189Z,5.30
2022-11-24T18:51:23.556Z,5.53
2022-11-24T18:53:54.484Z,4.60
2022-11-24T18:56:21.704Z,4.97
2022-11-24T18:58:51.991Z,5.47
2022-11-24T19:01:21.950Z,5.38
2022-11-24T19:03:51.483Z,5.43
2022-11-24T19:06:19.896Z,4.90
2022-11-24T19:08:47.347Z,5.00
2022-11-24T19:11:23.029Z,5.60
2022-11-24T19:13:50.812Z,5.07
2022-11-24T19:16:19.746Z,6.15
2022-11-24T19:18:53.115Z,4.85
2022-11-24T19:21:20.728Z,5.70
2022-11-24T19:23:47.565Z,6.10
2022-11-24T19:26:15.658Z,5.65
2022-11-24T19:28:42.453Z,6.10
2022-11-24T19:31:12.636Z,5.75
2022-11-24T19:33:39.993Z,5.53
2022-11-24T19:36:14.748Z,5.40
2022-11-24T19:38:43.182Z,5.30
2022-11-24T19:41:14.060Z,6.22
2022-11-24T19:43:41.899Z,6.32
2022-11-24T19:46:14.611Z,4.85
2022-11-24T19:48:47.263Z,5.97
2022-11-24T19:51:18.852Z,5.53
2022-11-24T19:53:46.174Z,5.50
2022-11-24T19:56:16.603Z,6.03
2022-11-24T19:58:43.575Z,6.13
2022-11-24T20:01:14.499Z,5.25
2022-11-24T20:03:43.006Z,4.97
2022-11-24T20:06:12.024Z,6.03
2022-11-24T20:08:39.874Z,5.60
2022-11-24T20:11:09.780Z,4.43
2022-11-24T20:13:38.461Z,5.50
2022-11-24T20:16:16.567Z,5.60
2022-11-24T20:18:45.248Z,5.28
2022-11-24T20:21:15.100Z,5.93
2022-11-24T20:23:43.047Z,5.65
2022-11-24T20:26:15.540Z,5.32
2022-11-24T20:28:43.157Z,5.10
2022-11-24T20:31:19.645Z,5.40
2022-11-24T20:33:47.250Z,5.88
2022-11-24T20:36:16.884Z,5.10
2022-11-24T20:38:44.271Z,5.15
2022-11-24T20:41:12.644Z,5.82
2022-11-24T20:43:40.349Z,5.00
2022-11-24T20:46:10.195Z,5.68
2022-11-24T20:48:37.792Z,6.03
2022-11-24T20:51:08.618Z,6.00
2022-11-24T20:53:36.116Z,6.03
2022-11-24T20:56:06.389Z,7.47
2022-11-24T20:58:35.415Z,5.55
2022-11-24T21:01:13.065Z,7.47
2022-11-24T21:03:43.339Z,6.18
2022-11-24T21:06:11.808Z,6.32
2022-11-24T21:08:40.315Z,5.57
2022-11-24T21:11:08.573Z,6.50
2022-11-24T21:13:37.363Z,6.10
2022-11-24T21:16:26.204Z,6.38
2022-11-24T21:18:56.355Z,6.68
2022-11-24T21:21:24.912Z,6.85
2022-11-24T21:23:52.143Z,5.55
2022-11-24T21:26:19.373Z,6.00
2022-11-24T21:28:47.461Z,5.63
2022-11-24T21:31:20.429Z,6.47
2022-11-24T21:33:49.407Z,6.18
2022-11-24T21:36:19.003Z,6.55
2022-11-24T21:38:54.433Z,5.82
2022-11-24T21:43:49.887Z,6.18
2022-11-24T21:46:17.599Z,6.45
2022-11-24T21:48:44.682Z,6.80
2022-11-24T21:51:17.080Z,5.93
2022-11-24T21:53:44.972Z,6.55
2022-11-24T21:56:17.046Z,6.55
2022-11-24T21:58:49.178Z,6.53
2022-11-24T22:01:17.730Z,6.82
2022-11-24T22:03:45.652Z,7.20
2022-11-24T22:06:13.127Z,7.03
2022-11-24T22:08:39.939Z,7.25
2022-11-24T22:11:11.310Z,6.22
2022-11-24T22:13:38.481Z,6.82
2022-11-24T22:16:06.600Z,6.65
2022-11-24T22:18:35.339Z,7.82
2022-11-24T22:21:05.112Z,6.85
2022-11-24T22:23:33.435Z,6.68
2022-11-24T22:26:23.175Z,7.60
2022-11-24T22:28:50.871Z,7.50
2022-11-24T22:31:20.439Z,8.05
2022-11-24T22:33:48.189Z,7.03
2022-11-24T22:36:16.650Z,6.53
2022-11-24T22:38:43.842Z,6.53
2022-11-24T22:41:16.013Z,7.75
2022-11-24T22:43:44.366Z,8.30
2022-11-24T22:46:15.078Z,8.25
2022-11-24T22:48:42.908Z,7.53
2022-11-24T22:51:11.894Z,7.85
2022-11-24T22:53:39.155Z,8.50
2022-11-24T22:56:11.190Z,7.90
2022-11-24T22:58:39.523Z,8.60
2022-11-24T23:01:25.097Z,9.35
2022-11-24T23:03:54.346Z,9.52
2022-11-24T23:06:23.965Z,8.30
2022-11-24T23:08:51.717Z,7.55
2022-11-24T23:11:30.722Z,7.22
2022-11-24T23:14:02.665Z,7.03
2022-11-24T23:16:29.874Z,5.90
2022-11-24T23:18:57.030Z,5.40
2022-11-24T23:21:29.050Z,5.72
2022-11-24T23:23:56.674Z,4.65
2022-11-24T23:26:26.523Z,3.88
2022-11-24T23:28:53.907Z,2.80
2022-11-24T23:31:24.335Z,2.65
2022-11-24T23:33:51.332Z,2.67
2022-11-24T23:36:20.174Z,2.70
2022-11-24T23:38:48.354Z,3.17
2022-11-24T23:41:17.665Z,2.75
2022-11-24T23:43:44.551Z,3.22
2022-11-24T23:46:13.923Z,2.72
2022-11-24T23:48:41.075Z,3.00
2022-11-24T23:51:11.726Z,3.10
2022-11-24T23:53:39.167Z,2.78
2022-11-24T23:56:06.435Z,3.00
2022-11-24T23:58:33.727Z,2.88
